createdAt,value
2019-05-01T00:01:19.190Z,5.17
2019-05-01T00:03:50.894Z,4.25
2019-05-01T00:06:28.467Z,3.87
2019-05-01T00:08:58.540Z,3.45
2019-05-01T00:11:28.509Z,3.08
2019-05-01T00:13:58.689Z,3.22
2019-05-01T00:16:28.659Z,3.05
2019-05-01T00:18:59.643Z,2.27
2019-05-01T00:21:29.634Z,2.52
2019-05-01T00:23:59.654Z,2.25
2019-05-01T00:26:29.689Z,1.92
2019-05-01T00:28:59.629Z,2.00
2019-05-01T00:31:29.549Z,2.25
2019-05-01T00:33:59.521Z,2.37
2019-05-01T00:36:29.521Z,2.10
2019-05-01T00:38:59.633Z,1.80
2019-05-01T00:41:31.217Z,2.05
2019-05-01T00:44:01.186Z,2.10
2019-05-01T00:46:31.193Z,1.75
2019-05-01T00:49:01.094Z,2.33
2019-05-01T00:51:31.030Z,2.00
2019-05-01T00:54:00.929Z,2.20
2019-05-01T00:56:50.234Z,2.22
2019-05-01T00:59:21.845Z,2.15
2019-05-01T01:02:01.981Z,2.05
2019-05-01T01:04:31.977Z,2.00
2019-05-01T01:07:01.813Z,2.15
2019-05-01T01:09:31.733Z,2.62
2019-05-01T01:12:01.610Z,2.33
2019-05-01T01:14:31.501Z,2.40
2019-05-01T01:17:01.504Z,2.55
2019-05-01T01:19:31.497Z,2.00
2019-05-01T01:22:01.474Z,1.90
2019-05-01T01:24:31.478Z,1.92
2019-05-01T01:27:01.481Z,2.02
2019-05-01T01:29:31.524Z,2.30
2019-05-01T01:32:01.449Z,2.10
2019-05-01T01:34:31.445Z,2.30
2019-05-01T01:37:01.445Z,2.25
2019-05-01T01:39:31.477Z,2.40
2019-05-01T01:42:01.567Z,2.80
2019-05-01T01:44:42.237Z,2.60
2019-05-01T01:47:12.338Z,2.15
2019-05-01T01:49:42.317Z,2.25
2019-05-01T01:52:13.012Z,2.10
2019-05-01T01:54:42.985Z,2.02
2019-05-01T01:57:14.065Z,1.70
2019-05-01T01:59:44.210Z,1.87
2019-05-01T02:02:15.852Z,1.87
2019-05-01T02:04:53.344Z,2.12
2019-05-01T02:07:23.490Z,2.15
2019-05-01T02:09:53.557Z,2.10
2019-05-01T02:12:23.656Z,2.20
2019-05-01T02:14:53.617Z,2.25
2019-05-01T02:17:23.613Z,2.22
2019-05-01T02:19:53.679Z,2.20
2019-05-01T02:22:23.677Z,2.10
2019-05-01T02:24:53.677Z,2.15
2019-05-01T02:27:25.586Z,1.90
2019-05-01T02:29:57.429Z,1.98
2019-05-01T02:32:29.146Z,2.20
2019-05-01T02:35:00.781Z,1.95
2019-05-01T02:37:32.295Z,2.37
2019-05-01T02:40:06.427Z,2.00
2019-05-01T02:42:39.345Z,1.75
2019-05-01T02:45:10.050Z,2.25
2019-05-01T02:47:42.389Z,2.30
2019-05-01T02:50:12.589Z,2.22
2019-05-01T02:52:44.161Z,2.50
2019-05-01T02:55:16.021Z,2.65
2019-05-01T02:57:46.698Z,2.98
2019-05-01T03:00:16.702Z,3.20
2019-05-01T03:02:47.167Z,4.00
2019-05-01T03:05:17.172Z,4.30
2019-05-01T03:07:47.353Z,4.30
2019-05-01T03:10:17.519Z,4.15
2019-05-01T03:12:50.082Z,4.28
2019-05-01T03:15:22.463Z,4.10
2019-05-01T03:17:54.266Z,4.28
2019-05-01T03:20:25.995Z,4.20
2019-05-01T03:23:13.774Z,4.50
2019-05-01T03:25:44.935Z,4.83
2019-05-01T03:28:15.075Z,5.45
2019-05-01T03:30:45.016Z,4.70
2019-05-01T03:33:15.015Z,5.28
2019-05-01T03:35:44.986Z,5.42
2019-05-01T03:38:15.192Z,4.75
2019-05-01T03:40:45.237Z,5.25
2019-05-01T03:43:15.338Z,4.95
2019-05-01T03:45:45.442Z,5.17
2019-05-01T03:48:15.622Z,4.90
2019-05-01T03:50:47.067Z,5.12
2019-05-01T03:53:17.998Z,4.78
2019-05-01T03:55:48.370Z,4.97
2019-05-01T03:58:19.169Z,5.15
2019-05-01T04:00:50.870Z,4.30
2019-05-01T04:03:22.714Z,4.50
2019-05-01T04:05:53.011Z,5.25
2019-05-01T04:08:23.087Z,4.10
2019-05-01T04:10:54.219Z,4.40
2019-05-01T04:13:24.319Z,4.03
2019-05-01T04:15:54.798Z,4.22
2019-05-01T04:18:25.646Z,4.60
2019-05-01T04:20:56.130Z,3.85
2019-05-01T04:23:26.333Z,3.77
2019-05-01T04:25:56.297Z,4.28
2019-05-01T04:28:37.135Z,4.50
2019-05-01T04:31:11.875Z,4.10
2019-05-01T04:33:43.607Z,3.95
2019-05-01T04:36:21.233Z,4.42
2019-05-01T04:38:51.409Z,3.83
2019-05-01T04:41:21.512Z,3.85
2019-05-01T04:43:51.540Z,4.37
2019-05-01T04:46:21.626Z,4.35
2019-05-01T04:48:51.610Z,3.17
2019-05-01T04:51:22.081Z,3.67
2019-05-01T04:53:52.048Z,3.72
2019-05-01T04:56:22.355Z,3.30
2019-05-01T04:58:52.776Z,3.30
2019-05-01T05:01:22.877Z,3.45
2019-05-01T05:03:52.958Z,3.02
2019-05-01T05:06:22.961Z,2.87
2019-05-01T05:08:52.925Z,3.02
2019-05-01T05:11:27.550Z,3.15
2019-05-01T05:14:13.929Z,2.60
2019-05-01T05:16:51.787Z,2.45
2019-05-01T05:19:21.857Z,2.70
2019-05-01T05:21:52.433Z,2.52
2019-05-01T05:24:23.401Z,2.05
2019-05-01T05:26:53.878Z,2.70
2019-05-01T05:29:24.632Z,2.70
2019-05-01T05:31:56.480Z,2.77
2019-05-01T05:34:27.433Z,2.60
2019-05-01T05:37:00.138Z,2.60
2019-05-01T05:39:33.482Z,2.65
2019-05-01T05:44:35.285Z,2.58
2019-05-01T05:47:05.753Z,2.20
2019-05-01T05:49:36.071Z,2.22
2019-05-01T05:52:11.755Z,2.50
2019-05-01T05:54:47.872Z,2.45
2019-05-01T05:57:24.506Z,2.70
2019-05-01T06:00:03.665Z,2.12
2019-05-01T06:02:49.633Z,2.75
2019-05-01T06:05:26.808Z,2.50
2019-05-01T06:08:16.242Z,2.20
2019-05-01T06:11:05.621Z,2.42
2019-05-01T06:13:56.887Z,2.40
2019-05-01T06:16:46.782Z,2.30
2019-05-01T06:19:16.369Z,1.67
2019-05-01T06:21:59.136Z,2.00
2019-05-01T06:24:44.493Z,2.08
2019-05-01T06:27:15.100Z,1.80
2019-05-01T06:29:46.281Z,1.62
2019-05-01T06:32:16.213Z,2.08
2019-05-01T06:34:46.313Z,1.95
2019-05-01T06:37:16.400Z,2.00
2019-05-01T06:39:48.133Z,1.65
2019-05-01T06:42:19.900Z,1.60
2019-05-01T06:44:54.741Z,2.20
2019-05-01T06:47:42.769Z,2.12
2019-05-01T06:50:14.622Z,1.85
2019-05-01T06:52:44.854Z,1.95
2019-05-01T06:55:14.929Z,2.35
2019-05-01T06:57:45.650Z,1.98
2019-05-01T07:00:17.173Z,2.02
2019-05-01T07:02:50.145Z,1.72
2019-05-01T07:05:21.887Z,2.20
2019-05-01T07:07:55.007Z,2.02
2019-05-01T07:10:31.480Z,1.90
2019-05-01T07:13:04.960Z,2.30
2019-05-01T07:15:33.289Z,2.10
2019-05-01T07:18:03.857Z,1.62
2019-05-01T07:20:35.678Z,1.52
2019-05-01T07:23:06.221Z,1.60
2019-05-01T07:25:39.489Z,1.77
2019-05-01T07:28:07.817Z,2.27
2019-05-01T07:30:41.455Z,1.82
2019-05-01T07:35:42.850Z,1.85
2019-05-01T07:38:12.921Z,2.12
2019-05-01T07:40:43.337Z,2.33
2019-05-01T07:43:19.020Z,2.50
2019-05-01T07:45:54.679Z,2.47
2019-05-01T07:48:41.297Z,2.35
2019-05-01T07:51:08.976Z,2.00
2019-05-01T07:53:39.997Z,1.80
2019-05-01T07:56:10.454Z,2.08
2019-05-01T07:58:40.445Z,1.75
2019-05-01T08:01:19.985Z,1.92
2019-05-01T08:03:49.773Z,2.62
2019-05-01T08:06:21.691Z,2.65
2019-05-01T08:08:51.466Z,2.47
2019-05-01T08:11:21.361Z,2.95
2019-05-01T08:13:51.380Z,3.25
2019-05-01T08:16:21.457Z,3.30
2019-05-01T08:18:53.139Z,3.22
2019-05-01T08:21:26.035Z,3.47
2019-05-01T08:23:56.461Z,2.60
2019-05-01T08:26:26.406Z,2.67
2019-05-01T08:29:06.821Z,2.75
2019-05-01T08:31:53.553Z,3.58
2019-05-01T08:34:30.929Z,3.22
2019-05-01T08:37:01.009Z,2.85
2019-05-01T08:39:30.977Z,3.45
2019-05-01T08:42:02.935Z,3.20
2019-05-01T08:44:34.334Z,3.55
2019-05-01T08:47:25.916Z,3.62
2019-05-01T08:49:58.489Z,3.92
2019-05-01T08:52:28.611Z,4.25
2019-05-01T08:54:58.617Z,4.50
2019-05-01T08:57:29.074Z,3.92
2019-05-01T09:00:01.523Z,3.83
2019-05-01T09:02:36.634Z,4.03
2019-05-01T09:05:07.136Z,4.50
2019-05-01T09:07:37.543Z,5.00
2019-05-01T09:10:09.304Z,4.20
2019-05-01T09:12:42.517Z,4.97
2019-05-01T09:15:14.363Z,4.72
2019-05-01T09:17:43.943Z,4.62
2019-05-01T09:20:16.707Z,5.05
2019-05-01T09:22:46.609Z,5.05
2019-05-01T09:25:18.141Z,4.37
2019-05-01T09:27:49.709Z,4.62
2019-05-01T09:30:21.966Z,4.67
2019-05-01T09:32:54.473Z,5.10
2019-05-01T09:35:24.949Z,4.87
2019-05-01T09:37:54.893Z,4.78
2019-05-01T09:40:24.866Z,5.37
2019-05-01T09:42:59.271Z,5.30
2019-05-01T09:45:26.554Z,4.95
2019-05-01T09:47:56.766Z,5.05
2019-05-01T09:50:30.450Z,5.15
2019-05-01T09:53:05.819Z,5.45
2019-05-01T09:55:46.328Z,5.35
2019-05-01T09:58:16.374Z,4.90
2019-05-01T10:00:48.842Z,5.15
2019-05-01T10:03:18.363Z,5.35
2019-05-01T10:05:48.417Z,5.60
2019-05-01T10:08:19.417Z,4.95
2019-05-01T10:10:49.565Z,5.22
2019-05-01T10:13:22.436Z,5.22
2019-05-01T10:15:51.261Z,5.62
2019-05-01T10:18:21.269Z,5.22
2019-05-01T10:20:51.169Z,5.10
2019-05-01T10:23:21.112Z,5.05
2019-05-01T10:25:53.610Z,5.90
2019-05-01T10:28:25.299Z,5.40
2019-05-01T10:30:57.745Z,5.85
2019-05-01T10:33:32.718Z,5.95
2019-05-01T10:38:40.000Z,5.55
2019-05-01T10:41:10.587Z,7.03
2019-05-01T10:43:40.680Z,6.17
2019-05-01T10:46:10.597Z,6.08
2019-05-01T10:48:40.498Z,6.70
2019-05-01T10:51:10.514Z,6.40
2019-05-01T10:53:43.165Z,6.42
2019-05-01T10:56:12.114Z,5.65
2019-05-01T10:58:43.487Z,5.85
2019-05-01T11:01:15.740Z,4.75
2019-05-01T11:03:45.821Z,5.37
2019-05-01T11:06:15.812Z,5.60
2019-05-01T11:08:45.733Z,4.08
2019-05-01T11:11:15.771Z,4.10
2019-05-01T11:13:45.754Z,4.47
2019-05-01T11:16:15.789Z,4.95
2019-05-01T11:18:45.793Z,4.30
2019-05-01T11:21:15.708Z,4.60
2019-05-01T11:23:46.673Z,4.30
2019-05-01T11:26:16.652Z,3.70
2019-05-01T11:28:46.603Z,4.03
2019-05-01T11:31:18.243Z,4.20
2019-05-01T11:33:58.821Z,3.90
2019-05-01T11:36:33.143Z,3.95
2019-05-01T11:39:13.721Z,4.22
2019-05-01T11:41:45.360Z,3.72
2019-05-01T11:44:15.325Z,3.33
2019-05-01T11:46:45.343Z,3.95
2019-05-01T11:49:15.382Z,3.80
2019-05-01T11:51:45.362Z,4.75
2019-05-01T11:54:15.437Z,4.28
2019-05-01T11:56:46.331Z,4.92
2019-05-01T11:59:16.372Z,4.17
2019-05-01T12:01:46.392Z,4.28
2019-05-01T12:04:16.361Z,12.03
2019-05-01T12:06:46.378Z,5.20
2019-05-01T12:09:16.450Z,3.83
2019-05-01T12:11:48.089Z,3.00
2019-05-01T12:14:18.025Z,4.37
2019-05-01T12:16:55.699Z,5.03
2019-05-01T12:19:32.853Z,4.65
2019-05-01T12:22:02.817Z,4.80
2019-05-01T12:24:32.891Z,5.05
2019-05-01T12:27:02.821Z,5.72
2019-05-01T12:29:32.681Z,4.92
2019-05-01T12:32:02.665Z,5.20
2019-05-01T12:34:32.606Z,4.80
2019-05-01T12:37:16.104Z,4.83
2019-05-01T12:39:46.450Z,4.30
2019-05-01T12:42:18.059Z,5.10
2019-05-01T12:44:47.989Z,5.45
2019-05-01T12:47:19.599Z,4.95
2019-05-01T12:49:51.323Z,4.37
2019-05-01T12:52:25.654Z,5.22
2019-05-01T12:54:57.225Z,4.65
2019-05-01T12:57:27.222Z,4.42
2019-05-01T13:00:08.182Z,3.70
2019-05-01T13:02:28.910Z,5.22
2019-05-01T13:04:58.805Z,4.00
2019-05-01T13:07:29.171Z,3.70
2019-05-01T13:09:59.677Z,4.65
2019-05-01T13:12:29.690Z,4.90
2019-05-01T13:14:59.590Z,3.70
2019-05-01T13:17:29.417Z,4.85
2019-05-01T13:19:59.361Z,3.72
2019-05-01T13:22:29.284Z,3.17
2019-05-01T13:24:59.219Z,3.65
2019-05-01T13:27:39.313Z,3.85
2019-05-01T13:30:16.492Z,3.67
2019-05-01T13:32:51.803Z,3.40
2019-05-01T13:35:21.775Z,3.72
2019-05-01T13:37:51.702Z,3.85
2019-05-01T13:40:21.918Z,3.12
2019-05-01T13:42:51.893Z,3.25
2019-05-01T13:45:21.870Z,4.62
2019-05-01T13:47:54.292Z,4.05
2019-05-01T13:50:23.950Z,3.37
2019-05-01T13:52:53.952Z,3.62
2019-05-01T13:55:23.925Z,3.70
2019-05-01T13:57:53.869Z,4.33
2019-05-01T14:00:25.581Z,4.85
2019-05-01T14:02:55.653Z,3.72
2019-05-01T14:05:25.629Z,4.25
2019-05-01T14:07:55.633Z,4.00
2019-05-01T14:10:25.730Z,4.42
2019-05-01T14:12:55.805Z,3.55
2019-05-01T14:15:25.808Z,3.17
2019-05-01T14:17:55.681Z,4.10
2019-05-01T14:20:30.078Z,3.62
2019-05-01T14:23:01.615Z,3.70
2019-05-01T14:25:49.566Z,3.80
2019-05-01T14:28:19.697Z,4.28
2019-05-01T14:30:49.634Z,4.35
2019-05-01T14:33:19.537Z,5.25
2019-05-01T14:35:49.545Z,3.98
2019-05-01T14:38:20.413Z,3.95
2019-05-01T14:40:50.414Z,3.45
2019-05-01T14:43:20.417Z,4.35
2019-05-01T14:45:50.409Z,5.05
2019-05-01T14:48:20.384Z,5.45
2019-05-01T14:50:50.326Z,5.25
2019-05-01T14:53:20.222Z,4.97
2019-05-01T14:55:50.229Z,4.25
2019-05-01T14:58:20.250Z,4.87
2019-05-01T15:00:50.226Z,4.95
2019-05-01T15:03:20.153Z,4.60
2019-05-01T15:05:50.159Z,4.28
2019-05-01T15:08:20.125Z,4.30
2019-05-01T15:10:50.209Z,4.20
2019-05-01T15:13:21.820Z,4.47
2019-05-01T15:15:53.398Z,4.47
2019-05-01T15:18:24.946Z,3.85
2019-05-01T15:20:54.941Z,4.37
2019-05-01T15:23:24.845Z,3.90
2019-05-01T15:25:54.954Z,4.05
2019-05-01T15:28:24.921Z,4.15
2019-05-01T15:30:54.861Z,4.45
2019-05-01T15:33:24.844Z,4.67
2019-05-01T15:35:54.804Z,5.22
2019-05-01T15:38:24.639Z,3.77
2019-05-01T15:41:02.338Z,4.17
2019-05-01T15:43:39.753Z,3.62
2019-05-01T15:46:09.622Z,3.50
2019-05-01T15:48:39.543Z,3.45
2019-05-01T15:51:09.545Z,3.22
2019-05-01T15:53:39.453Z,3.22
2019-05-01T15:56:09.396Z,3.55
2019-05-01T15:58:39.224Z,3.25
2019-05-01T16:01:09.301Z,3.30
2019-05-01T16:03:39.137Z,2.92
2019-05-01T16:06:09.150Z,3.37
2019-05-01T16:08:39.057Z,3.12
2019-05-01T16:11:22.697Z,3.15
2019-05-01T16:13:52.746Z,2.98
2019-05-01T16:16:22.749Z,2.77
2019-05-01T16:18:52.720Z,3.25
2019-05-01T16:21:22.584Z,3.37
2019-05-01T16:23:52.506Z,3.08
2019-05-01T16:26:22.409Z,3.20
2019-05-01T16:28:52.417Z,3.27
2019-05-01T16:31:22.258Z,3.22
2019-05-01T16:33:52.261Z,2.90
2019-05-01T16:36:22.189Z,3.42
2019-05-01T16:39:10.153Z,2.83
2019-05-01T16:41:40.401Z,2.90
2019-05-01T16:44:10.414Z,3.00
2019-05-01T16:46:40.322Z,2.90
2019-05-01T16:49:10.297Z,3.65
2019-05-01T16:51:40.237Z,2.98
2019-05-01T16:54:11.448Z,3.65
2019-05-01T16:56:41.352Z,2.90
2019-05-01T16:59:11.212Z,3.47
2019-05-01T17:01:42.749Z,4.75
2019-05-01T17:04:26.208Z,4.83
2019-05-01T17:09:50.086Z,4.45
2019-05-01T17:12:25.361Z,4.95
2019-05-01T17:14:56.416Z,5.42
2019-05-01T17:17:27.085Z,5.83
2019-05-01T17:19:57.229Z,5.65
2019-05-01T17:22:27.258Z,5.92
2019-05-01T17:24:59.096Z,6.85
2019-05-01T17:27:30.622Z,7.12
2019-05-01T17:30:00.742Z,7.08
2019-05-01T17:32:30.839Z,7.00
2019-05-01T17:35:01.842Z,7.53
2019-05-01T17:37:32.760Z,7.17
2019-05-01T17:40:04.045Z,8.03
2019-05-01T17:42:37.630Z,7.85
2019-05-01T17:45:07.385Z,7.00
2019-05-01T17:47:37.477Z,6.62
2019-05-01T17:50:07.728Z,6.60
2019-05-01T17:52:37.878Z,6.17
2019-05-01T17:55:08.161Z,6.75
2019-05-01T17:57:38.265Z,6.05
2019-05-01T18:00:26.197Z,6.90
2019-05-01T18:03:15.877Z,7.03
2019-05-01T18:05:47.897Z,7.90
2019-05-01T18:08:17.929Z,7.90
2019-05-01T18:10:47.969Z,7.45
2019-05-01T18:13:17.989Z,8.63
2019-05-01T18:15:47.970Z,7.33
2019-05-01T18:18:18.014Z,7.08
2019-05-01T18:20:48.037Z,7.70
2019-05-01T18:23:35.677Z,7.12
2019-05-01T18:26:10.356Z,6.92
2019-05-01T18:29:00.940Z,5.97
2019-05-01T18:31:32.022Z,6.03
2019-05-01T18:34:04.525Z,6.87
2019-05-01T18:36:55.035Z,7.10
2019-05-01T18:39:36.391Z,7.22
2019-05-01T18:42:13.399Z,7.55
2019-05-01T18:44:42.466Z,8.05
2019-05-01T18:47:13.034Z,7.62
2019-05-01T18:49:43.120Z,7.53
2019-05-01T18:52:13.212Z,8.45
2019-05-01T18:54:43.191Z,8.28
2019-05-01T18:57:13.283Z,8.08
2019-05-01T18:59:43.365Z,7.17
2019-05-01T19:02:20.510Z,7.78
2019-05-01T19:04:48.140Z,7.28
2019-05-01T19:07:18.149Z,9.10
2019-05-01T19:09:48.247Z,9.85
2019-05-01T19:12:18.438Z,8.70
2019-05-01T19:14:48.439Z,8.93
2019-05-01T19:17:18.498Z,8.78
2019-05-01T19:19:49.704Z,10.03
2019-05-01T19:22:19.795Z,8.30
2019-05-01T19:24:49.809Z,7.92
2019-05-01T19:27:21.229Z,6.37
2019-05-01T19:29:51.653Z,9.65
2019-05-01T19:32:21.870Z,10.38
2019-05-01T19:34:51.859Z,7.65
2019-05-01T19:37:23.692Z,6.62
2019-05-01T19:39:54.963Z,5.70
2019-05-01T19:42:25.165Z,6.55
2019-05-01T19:44:56.285Z,7.42
2019-05-01T19:47:27.150Z,7.47
2019-05-01T19:50:06.706Z,5.87
2019-05-01T19:52:32.498Z,6.30
2019-05-01T19:55:06.460Z,6.08
2019-05-01T19:57:35.789Z,5.90
2019-05-01T20:00:07.539Z,5.97
2019-05-01T20:02:38.398Z,6.30
2019-05-01T20:05:11.177Z,6.33
2019-05-01T20:07:41.366Z,6.22
2019-05-01T20:10:12.022Z,5.97
2019-05-01T20:12:42.130Z,6.17
2019-05-01T20:15:12.459Z,5.70
2019-05-01T20:17:42.457Z,6.37
2019-05-01T20:20:12.517Z,6.67
2019-05-01T20:22:42.603Z,6.28
2019-05-01T20:25:14.620Z,6.35
2019-05-01T20:27:47.767Z,6.05
2019-05-01T20:30:16.331Z,6.33
2019-05-01T20:32:46.410Z,6.00
2019-05-01T20:35:16.469Z,6.33
2019-05-01T20:37:46.594Z,6.33
2019-05-01T20:40:16.750Z,6.72
2019-05-01T20:42:46.825Z,6.10
2019-05-01T20:45:18.194Z,6.62
2019-05-01T20:47:48.701Z,5.83
2019-05-01T20:50:18.922Z,6.40
2019-05-01T20:52:49.107Z,6.92
2019-05-01T20:55:19.210Z,6.70
2019-05-01T20:57:50.052Z,6.33
2019-05-01T21:00:21.980Z,6.62
2019-05-01T21:02:52.091Z,6.33
2019-05-01T21:05:23.626Z,6.65
2019-05-01T21:07:58.994Z,6.78
2019-05-01T21:10:34.353Z,6.87
2019-05-01T21:13:06.153Z,7.00
2019-05-01T21:15:36.386Z,7.17
2019-05-01T21:18:06.461Z,6.72
2019-05-01T21:20:36.530Z,6.92
2019-05-01T21:23:10.464Z,6.55
2019-05-01T21:25:38.217Z,6.30
2019-05-01T21:28:08.257Z,6.33
2019-05-01T21:30:38.737Z,6.65
2019-05-01T21:33:11.901Z,6.45
2019-05-01T21:35:44.458Z,6.50
2019-05-01T21:38:14.391Z,6.42
2019-05-01T21:40:44.462Z,6.22
2019-05-01T21:43:14.406Z,7.10
2019-05-01T21:45:44.418Z,7.10
2019-05-01T21:48:14.338Z,6.72
2019-05-01T21:50:44.291Z,6.60
2019-05-01T21:53:14.293Z,6.30
2019-05-01T21:55:44.299Z,6.50
2019-05-01T21:58:15.323Z,6.28
2019-05-01T22:00:45.890Z,6.72
2019-05-01T22:03:16.745Z,6.37
2019-05-01T22:05:47.717Z,6.95
2019-05-01T22:08:17.721Z,6.72
2019-05-01T22:10:52.095Z,7.37
2019-05-01T22:13:20.339Z,7.25
2019-05-01T22:15:53.110Z,6.65
2019-05-01T22:18:24.754Z,7.55
2019-05-01T22:20:56.495Z,7.05
2019-05-01T22:23:30.886Z,6.85
2019-05-01T22:26:01.568Z,6.45
2019-05-01T22:28:33.197Z,6.53
2019-05-01T22:31:21.681Z,7.30
2019-05-01T22:33:53.302Z,6.80
2019-05-01T22:36:23.396Z,6.30
2019-05-01T22:38:53.431Z,6.10
2019-05-01T22:41:23.510Z,7.10
2019-05-01T22:43:53.490Z,6.50
2019-05-01T22:46:25.149Z,5.90
2019-05-01T22:48:55.230Z,6.33
2019-05-01T22:51:26.384Z,6.22
2019-05-01T22:53:56.563Z,6.22
2019-05-01T22:56:26.594Z,7.10
2019-05-01T22:58:57.801Z,7.12
2019-05-01T23:01:29.296Z,6.80
2019-05-01T23:04:01.002Z,6.62
2019-05-01T23:06:31.039Z,6.80
2019-05-01T23:09:01.029Z,7.03
2019-05-01T23:11:34.341Z,6.95
2019-05-01T23:14:04.402Z,6.60
2019-05-01T23:16:36.243Z,6.42
2019-05-01T23:19:06.205Z,6.28
2019-05-01T23:21:36.136Z,6.85
2019-05-01T23:24:06.448Z,5.78
2019-05-01T23:26:36.460Z,6.40
2019-05-01T23:29:06.429Z,6.00
2019-05-01T23:31:36.450Z,6.85
2019-05-01T23:34:06.493Z,6.25
2019-05-01T23:36:37.484Z,6.33
2019-05-01T23:39:08.117Z,7.12
2019-05-01T23:41:45.626Z,6.55
2019-05-01T23:44:09.760Z,5.92
2019-05-01T23:46:39.602Z,7.40
2019-05-01T23:49:09.537Z,6.72
2019-05-01T23:51:39.517Z,6.42
2019-05-01T23:54:09.534Z,6.40
2019-05-01T23:56:39.485Z,6.15
2019-05-01T23:59:09.425Z,7.00
